Time,TemperatureF,DewpointF,PressureIn,WindDirection,WindDirectionDegrees,WindSpeedMPH,WindSpeedGustMPH,Humidity,HourlyPrecipIn,Conditions,Clouds,dailyrainin,SoftwareType,DateUTC
2013-02-11 00:02:00,45.0,-99.9,-100.00,South,187,1.0,8.0,-999,-99.99,,,-99.99,,2013-02-11 07:02:00,
2013-02-11 01:10:00,43.0,-99.9,-100.00,ESE,123,0.0,2.0,-999,-99.99,,,-99.99,,2013-02-11 08:10:00,
2013-02-11 01:50:00,41.0,-99.9,-100.00,ENE,58,2.0,9.0,-999,-99.99,,,-99.99,,2013-02-11 08:50:00,
2013-02-11 01:52:00,43.0,-99.9,-100.00,ESE,123,0.0,2.0,-999,-99.99,,,-99.99,,2013-02-11 08:52:00,
2013-02-11 02:02:00,43.0,-99.9,-100.00,ESE,123,0.0,2.0,-999,-99.99,,,-99.99,,2013-02-11 09:02:00,
2013-02-11 02:32:00,41.0,-99.9,-100.00,ENE,58,2.0,9.0,-999,-99.99,,,-99.99,,2013-02-11 09:32:00,
2013-02-11 02:42:00,41.0,-99.9,-100.00,ENE,58,2.0,9.0,-999,-99.99,,,-99.99,,2013-02-11 09:42:00,
2013-02-11 03:52:00,42.0,-99.9,-100.00,ESE,123,2.0,7.0,-999,-99.99,,,-99.99,,2013-02-11 10:52:00,
2013-02-11 04:02:00,42.0,-99.9,-100.00,ESE,123,2.0,7.0,-999,-99.99,,,-99.99,,2013-02-11 11:02:00,
2013-02-11 04:20:00,40.0,-99.9,-100.00,ENE,75,2.0,5.0,-999,-99.99,,,-99.99,,2013-02-11 11:20:00,
2013-02-11 04:52:00,40.0,-99.9,-100.00,NNE,16,9.0,9.0,-999,-99.99,,,-99.99,,2013-02-11 11:52:00,
2013-02-11 05:03:00,40.0,-99.9,-100.00,ENE,75,2.0,5.0,-999,-99.99,,,-99.99,,2013-02-11 12:03:00,
2013-02-11 05:12:00,40.0,-99.9,-100.00,ENE,75,2.0,5.0,-999,-99.99,,,-99.99,,2013-02-11 12:12:00,
2013-02-11 07:00:00,41.0,-99.9,-100.00,North,357,3.0,5.0,-999,-99.99,,,-99.99,,2013-02-11 14:00:00,
2013-02-11 07:33:00,41.0,-99.9,-100.00,North,357,0.0,6.0,-999,-99.99,,,-99.99,,2013-02-11 14:33:00,
2013-02-11 07:42:00,41.0,-99.9,-100.00,North,357,0.0,6.0,-999,-99.99,,,-99.99,,2013-02-11 14:42:00,
2013-02-11 07:53:00,41.0,-99.9,-100.00,North,357,3.0,5.0,-999,-99.99,,,-99.99,,2013-02-11 14:53:00,
2013-02-11 08:32:00,41.0,-99.9,-100.00,NNE,13,8.0,10.0,-999,-99.99,,,-99.99,,2013-02-11 15:32:00,
2013-02-11 08:40:00,47.0,-99.9,-100.00,NNE,15,14.0,17.0,-999,-99.99,,,-99.99,,2013-02-11 15:40:00,
2013-02-11 08:43:00,41.0,-99.9,-100.00,NNE,13,8.0,10.0,-999,-99.99,,,-99.99,,2013-02-11 15:43:00,
2013-02-11 08:52:00,45.0,-99.9,-100.00,NNE,32,8.0,11.0,-999,-99.99,,,-99.99,,2013-02-11 15:52:00,
2013-02-11 09:02:00,46.0,-99.9,-100.00,ENE,65,9.0,10.0,-999,-99.99,,,-99.99,,2013-02-11 16:02:00,
2013-02-11 09:12:00,46.0,-99.9,-100.00,ENE,65,9.0,10.0,-999,-99.99,,,-99.99,,2013-02-11 16:12:00,
2013-02-11 09:22:00,47.0,-99.9,-100.00,NNE,15,14.0,17.0,-999,-99.99,,,-99.99,,2013-02-11 16:22:00,
2013-02-11 09:32:00,47.0,-99.9,-100.00,NNE,15,14.0,17.0,-999,-99.99,,,-99.99,,2013-02-11 16:32:00,
2013-02-11 10:02:00,47.0,-99.9,-100.00,NE,45,7.0,14.0,-999,-99.99,,,-99.99,,2013-02-11 17:02:00,
2013-02-11 10:12:00,47.0,-99.9,-100.00,NE,45,7.0,14.0,-999,-99.99,,,-99.99,,2013-02-11 17:12:00,
2013-02-11 10:22:00,49.0,-99.9,-100.00,NE,46,8.0,14.0,-999,-99.99,,,-99.99,,2013-02-11 17:22:00,
2013-02-11 10:33:00,50.0,-99.9,-100.00,NE,55,11.0,17.0,-999,-99.99,,,-99.99,,2013-02-11 17:33:00,
2013-02-11 10:42:00,50.0,-99.9,-100.00,NE,55,11.0,17.0,-999,-99.99,,,-99.99,,2013-02-11 17:42:00,
2013-02-11 10:53:00,50.0,-99.9,-100.00,NE,55,11.0,17.0,-999,-99.99,,,-99.99,,2013-02-11 17:53:00,
2013-02-11 11:40:00,52.0,-99.9,-100.00,NE,45,19.0,22.0,-999,-99.99,,,-99.99,,2013-02-11 18:40:00,
2013-02-11 12:22:00,52.0,-99.9,-100.00,NE,45,19.0,22.0,-999,-99.99,,,-99.99,,2013-02-11 19:22:00,
2013-02-11 12:30:00,53.0,-99.9,-100.00,ENE,59,11.0,19.0,-999,-99.99,,,-99.99,,2013-02-11 19:30:00,
2013-02-11 12:32:00,52.0,-99.9,-100.00,NE,45,19.0,22.0,-999,-99.99,,,-99.99,,2013-02-11 19:32:00,
2013-02-11 13:02:00,53.0,-99.9,-100.00,ENE,70,9.0,18.0,-999,-99.99,,,-99.99,,2013-02-11 20:02:00,
2013-02-11 13:12:00,53.0,-99.9,-100.00,ENE,70,9.0,18.0,-999,-99.99,,,-99.99,,2013-02-11 20:12:00,
2013-02-11 13:22:00,53.0,-99.9,-100.00,ENE,59,11.0,19.0,-999,-99.99,,,-99.99,,2013-02-11 20:22:00,
2013-02-11 14:22:00,54.0,-99.9,-100.00,NE,45,12.0,12.0,-999,-99.99,,,-99.99,,2013-02-11 21:22:00,
2013-02-11 14:32:00,54.0,-99.9,-100.00,NNE,19,17.0,23.0,-999,-99.99,,,-99.99,,2013-02-11 21:32:00,
2013-02-11 14:42:00,54.0,-99.9,-100.00,NNE,19,17.0,23.0,-999,-99.99,,,-99.99,,2013-02-11 21:42:00,
2013-02-11 14:50:00,56.0,-99.9,-100.00,NE,48,16.0,16.0,-999,-99.99,,,-99.99,,2013-02-11 21:50:00,
2013-02-11 14:52:00,54.0,-99.9,-100.00,NNE,19,17.0,23.0,-999,-99.99,,,-99.99,,2013-02-11 21:52:00,
2013-02-11 15:02:00,54.0,-99.9,-100.00,North,10,9.0,20.0,-999,-99.99,,,-99.99,,2013-02-11 22:02:00,
2013-02-11 15:12:00,54.0,-99.9,-100.00,North,10,9.0,20.0,-999,-99.99,,,-99.99,,2013-02-11 22:12:00,
2013-02-11 15:22:00,56.0,-99.9,-100.00,NNE,23,9.0,16.0,-999,-99.99,,,-99.99,,2013-02-11 22:22:00,
2013-02-11 15:32:00,56.0,-99.9,-100.00,NE,48,16.0,16.0,-999,-99.99,,,-99.99,,2013-02-11 22:32:00,
2013-02-11 15:42:00,56.0,-99.9,-100.00,NE,48,16.0,16.0,-999,-99.99,,,-99.99,,2013-02-11 22:42:00,
2013-02-11 17:32:00,56.0,-99.9,-100.00,NNE,23,10.0,14.0,-999,-99.99,,,-99.99,,2013-02-12 00:32:00,
2013-02-11 17:43:00,56.0,-99.9,-100.00,NNE,23,10.0,14.0,-999,-99.99,,,-99.99,,2013-02-12 00:43:00,
2013-02-11 18:22:00,55.0,-99.9,-100.00,NE,35,11.0,15.0,-999,-99.99,,,-99.99,,2013-02-12 01:22:00,
2013-02-11 18:32:00,55.0,-99.9,-100.00,NE,35,11.0,15.0,-999,-99.99,,,-99.99,,2013-02-12 01:32:00,
2013-02-11 18:40:00,53.0,-99.9,-100.00,SSW,195,1.0,8.0,-999,-99.99,,,-99.99,,2013-02-12 01:40:00,
2013-02-11 19:22:00,53.0,-99.9,-100.00,SSW,195,1.0,8.0,-999,-99.99,,,-99.99,,2013-02-12 02:22:00,
2013-02-11 19:32:00,53.0,-99.9,-100.00,SSW,195,1.0,8.0,-999,-99.99,,,-99.99,,2013-02-12 02:32:00,
2013-02-11 20:02:00,51.0,-99.9,-100.00,SE,142,7.0,9.0,-999,-99.99,,,-99.99,,2013-02-12 03:02:00,
2013-02-11 20:11:00,51.0,-99.9,-100.00,SE,142,7.0,9.0,-999,-99.99,,,-99.99,,2013-02-12 03:11:00,
2013-02-11 21:22:00,47.0,-99.9,-100.00,NNE,32,8.0,12.0,-999,-99.99,,,-99.99,,2013-02-12 04:22:00,
2013-02-11 21:32:00,47.0,-99.9,-100.00,SW,220,4.0,7.0,-999,-99.99,,,-99.99,,2013-02-12 04:32:00,
2013-02-11 21:42:00,47.0,-99.9,-100.00,SW,220,4.0,7.0,-999,-99.99,,,-99.99,,2013-02-12 04:42:00,
2013-02-11 21:52:00,47.0,-99.9,-100.00,SW,220,4.0,7.0,-999,-99.99,,,-99.99,,2013-02-12 04:52:00,
2013-02-11 22:02:00,46.0,-99.9,-100.00,ENE,58,2.0,9.0,-999,-99.99,,,-99.99,,2013-02-12 05:02:00,
2013-02-11 22:11:00,46.0,-99.9,-100.00,ENE,58,2.0,9.0,-999,-99.99,,,-99.99,,2013-02-12 05:11:00,
2013-02-11 22:30:00,45.0,-99.9,-100.00,East,85,5.0,9.0,-999,-99.99,,,-99.99,,2013-02-12 05:30:00,
2013-02-11 23:00:00,46.0,-99.9,-100.00,ENE,74,4.0,12.0,-999,-99.99,,,-99.99,,2013-02-12 06:00:00,
2013-02-11 23:12:00,45.0,-99.9,-100.00,East,85,5.0,9.0,-999,-99.99,,,-99.99,,2013-02-12 06:12:00,
2013-02-11 23:22:00,45.0,-99.9,-100.00,East,85,5.0,9.0,-999,-99.99,,,-99.99,,2013-02-12 06:22:00,
2013-02-11 23:52:00,46.0,-99.9,-100.00,ENE,74,4.0,12.0,-999,-99.99,,,-99.99,,2013-02-12 06:52:00,